createdAt,value
2023-05-11T00:00:38.933Z,17.05
2023-05-11T00:03:06.232Z,17.01
2023-05-11T00:05:33.134Z,17.01
2023-05-11T00:07:59.578Z,16.98
2023-05-11T00:10:26.067Z,16.98
2023-05-11T00:12:52.533Z,16.98
2023-05-11T00:15:19.230Z,16.93
2023-05-11T00:17:45.706Z,16.97
2023-05-11T00:20:12.265Z,16.95
2023-05-11T00:22:39.159Z,16.93
2023-05-11T00:25:06.633Z,16.90
2023-05-11T00:27:33.083Z,16.89
2023-05-11T00:29:59.550Z,16.87
2023-05-11T00:32:26.201Z,16.83
2023-05-11T00:34:52.701Z,16.84
2023-05-11T00:37:19.285Z,16.83
2023-05-11T00:39:45.766Z,16.80
2023-05-11T00:42:12.244Z,16.79
2023-05-11T00:44:38.700Z,16.78
2023-05-11T00:47:05.410Z,16.77
2023-05-11T00:49:32.218Z,16.76
2023-05-11T00:52:02.822Z,16.74
2023-05-11T00:54:29.558Z,16.72
2023-05-11T00:56:56.260Z,16.73
2023-05-11T00:59:23.578Z,16.71
2023-05-11T01:01:50.502Z,16.70
2023-05-11T01:04:17.778Z,16.70
2023-05-11T01:06:47.905Z,16.70
2023-05-11T01:09:30.316Z,16.67
2023-05-11T01:12:14.036Z,16.65
2023-05-11T01:15:18.195Z,16.65
2023-05-11T01:17:58.053Z,16.61
2023-05-11T01:20:30.103Z,16.61
2023-05-11T01:23:20.328Z,16.57
2023-05-11T01:26:08.756Z,16.56
2023-05-11T01:29:12.846Z,16.55
2023-05-11T01:31:42.926Z,16.54
2023-05-11T01:34:15.876Z,16.53
2023-05-11T01:36:53.329Z,16.50
2023-05-11T01:39:35.060Z,16.49
2023-05-11T01:42:08.436Z,16.49
2023-05-11T01:44:37.109Z,16.48
2023-05-11T01:47:04.794Z,16.45
2023-05-11T01:49:36.340Z,16.44
2023-05-11T01:52:03.793Z,16.44
2023-05-11T01:54:32.438Z,16.40
2023-05-11T01:57:01.529Z,16.38
2023-05-11T01:59:30.968Z,16.37
2023-05-11T02:01:58.661Z,16.36
2023-05-11T02:04:26.554Z,16.37
2023-05-11T02:06:54.845Z,16.34
2023-05-11T02:09:23.551Z,16.33
2023-05-11T02:11:51.868Z,16.33
2023-05-11T02:14:21.635Z,16.31
2023-05-11T02:16:49.800Z,16.31
2023-05-11T02:19:17.788Z,16.27
2023-05-11T02:21:45.202Z,16.30
2023-05-11T02:24:12.343Z,16.27
2023-05-11T02:26:38.829Z,16.24
2023-05-11T02:29:05.310Z,16.25
2023-05-11T02:31:39.539Z,16.24
2023-05-11T02:34:20.612Z,16.24
2023-05-11T02:36:49.803Z,16.24
2023-05-11T02:39:21.916Z,16.22
2023-05-11T02:41:57.023Z,16.20
2023-05-11T02:44:31.494Z,16.17
2023-05-11T02:47:02.472Z,16.17
2023-05-11T02:49:32.339Z,16.18
2023-05-11T02:52:01.430Z,16.15
2023-05-11T02:54:28.873Z,16.15
2023-05-11T02:56:57.483Z,16.12
2023-05-11T02:59:25.108Z,16.13
2023-05-11T03:01:52.709Z,16.10
2023-05-11T03:04:19.570Z,16.09
2023-05-11T03:06:46.195Z,16.06
2023-05-11T03:09:12.761Z,16.06
2023-05-11T03:11:45.059Z,16.06
2023-05-11T03:14:11.954Z,16.04
2023-05-11T03:16:39.589Z,16.02
2023-05-11T03:19:08.099Z,16.03
2023-05-11T03:21:37.338Z,15.98
2023-05-11T03:24:07.063Z,15.98
2023-05-11T03:26:35.038Z,16.00
2023-05-11T03:29:03.143Z,15.99
2023-05-11T03:31:29.726Z,15.98
2023-05-11T03:33:58.454Z,15.96
2023-05-11T03:36:27.483Z,15.94
2023-05-11T03:38:58.394Z,15.94
2023-05-11T03:41:33.398Z,15.93
2023-05-11T03:44:03.006Z,15.93
2023-05-11T03:46:32.594Z,15.91
2023-05-11T03:49:01.263Z,15.91
2023-05-11T03:51:31.790Z,15.89
2023-05-11T03:53:58.960Z,15.89
2023-05-11T03:56:25.638Z,15.87
2023-05-11T03:58:53.370Z,15.85
2023-05-11T04:01:20.266Z,15.85
2023-05-11T04:03:51.291Z,15.80
2023-05-11T04:06:18.857Z,15.84
2023-05-11T04:08:49.506Z,15.82
2023-05-11T04:11:15.962Z,15.80
2023-05-11T04:13:42.762Z,15.81
2023-05-11T04:16:09.350Z,15.80
2023-05-11T04:18:35.849Z,15.78
2023-05-11T04:21:02.314Z,15.79
2023-05-11T04:23:28.750Z,15.78
2023-05-11T04:25:56.380Z,15.78
2023-05-11T04:28:23.908Z,15.78
2023-05-11T04:30:55.684Z,15.76
2023-05-11T04:33:22.660Z,15.75
2023-05-11T04:35:51.547Z,15.75
2023-05-11T04:38:19.619Z,15.76
2023-05-11T04:40:47.814Z,15.77
2023-05-11T04:43:15.561Z,15.76
2023-05-11T04:45:46.869Z,15.77
2023-05-11T04:48:13.798Z,15.75
2023-05-11T04:50:40.413Z,15.76
2023-05-11T04:53:07.622Z,15.77
2023-05-11T04:55:34.163Z,15.78
2023-05-11T04:58:00.641Z,15.77
2023-05-11T05:00:27.353Z,15.76
2023-05-11T05:02:53.799Z,15.78
2023-05-11T05:05:20.544Z,15.79
2023-05-11T05:07:47.107Z,15.76
2023-05-11T05:10:13.713Z,15.78
2023-05-11T05:12:40.425Z,15.79
2023-05-11T05:15:07.537Z,15.77
2023-05-11T05:17:35.442Z,15.79
2023-05-11T05:20:02.069Z,15.76
2023-05-11T05:22:28.575Z,15.75
2023-05-11T05:24:55.028Z,15.78
2023-05-11T05:27:21.509Z,15.76
2023-05-11T05:29:48.466Z,15.78
2023-05-11T05:32:15.696Z,15.78
2023-05-11T05:34:42.206Z,15.77
2023-05-11T05:37:09.555Z,15.78
2023-05-11T05:39:36.074Z,15.78
2023-05-11T05:42:03.136Z,15.80
2023-05-11T05:44:29.858Z,15.81
2023-05-11T05:46:56.365Z,15.81
2023-05-11T05:49:22.942Z,15.81
2023-05-11T05:51:50.726Z,15.81
2023-05-11T05:54:17.848Z,15.82
2023-05-11T05:56:45.186Z,15.82
2023-05-11T05:59:13.184Z,15.82
2023-05-11T06:01:46.234Z,15.83
2023-05-11T06:04:14.483Z,15.82
2023-05-11T06:06:41.120Z,15.81
2023-05-11T06:09:08.818Z,15.80
2023-05-11T06:11:35.524Z,15.80
2023-05-11T06:14:01.990Z,15.82
2023-05-11T06:16:28.465Z,15.80
2023-05-11T06:18:55.068Z,15.81
2023-05-11T06:21:22.051Z,15.82
2023-05-11T06:23:48.527Z,15.82
2023-05-11T06:26:15.568Z,15.84
2023-05-11T06:28:42.004Z,15.82
2023-05-11T06:31:12.761Z,15.84
2023-05-11T06:33:42.478Z,15.83
2023-05-11T06:36:18.245Z,15.84
2023-05-11T06:38:45.659Z,15.84
2023-05-11T06:41:12.126Z,15.84
2023-05-11T06:43:38.653Z,15.86
2023-05-11T06:46:16.346Z,15.84
2023-05-11T06:48:43.402Z,15.86
2023-05-11T06:51:11.615Z,15.89
2023-05-11T06:53:38.828Z,15.89
2023-05-11T06:56:05.633Z,15.91
2023-05-11T06:58:32.181Z,15.90
2023-05-11T07:00:58.713Z,15.89
2023-05-11T07:03:25.162Z,15.92
2023-05-11T07:05:51.624Z,15.93
2023-05-11T07:08:18.054Z,15.94
2023-05-11T07:10:44.436Z,15.94
2023-05-11T07:13:11.144Z,15.95
2023-05-11T07:15:37.545Z,15.96
2023-05-11T07:18:04.136Z,15.95
2023-05-11T07:20:30.680Z,15.99
2023-05-11T07:22:59.189Z,15.97
2023-05-11T07:25:25.950Z,15.97
2023-05-11T07:27:52.643Z,15.97
2023-05-11T07:30:19.254Z,15.99
2023-05-11T07:32:45.748Z,15.98
2023-05-11T07:35:12.269Z,15.98
2023-05-11T07:37:38.676Z,16.01
2023-05-11T07:40:05.750Z,15.99
2023-05-11T07:42:32.132Z,16.01
2023-05-11T07:44:58.609Z,16.00
2023-05-11T07:47:25.262Z,15.97
2023-05-11T07:49:51.744Z,15.97
2023-05-11T07:52:18.151Z,15.97
2023-05-11T07:54:44.829Z,16.00
2023-05-11T07:57:11.665Z,15.97
2023-05-11T07:59:38.116Z,15.98
2023-05-11T08:02:06.563Z,15.98
2023-05-11T08:04:33.489Z,15.97
2023-05-11T08:07:00.432Z,15.96
2023-05-11T08:09:27.085Z,15.95
2023-05-11T08:11:56.382Z,15.99
2023-05-11T08:14:24.321Z,15.96
2023-05-11T08:16:50.813Z,15.99
2023-05-11T08:19:17.270Z,15.98
2023-05-11T08:21:44.899Z,16.00
2023-05-11T08:24:12.204Z,16.00
2023-05-11T08:26:38.689Z,15.97
2023-05-11T08:29:05.119Z,16.00
2023-05-11T08:31:31.634Z,15.98
2023-05-11T08:33:58.137Z,16.00
2023-05-11T08:36:24.667Z,16.01
2023-05-11T08:38:52.381Z,15.99
2023-05-11T08:41:18.953Z,16.01
2023-05-11T08:43:47.044Z,16.01
2023-05-11T08:46:20.850Z,16.01
2023-05-11T08:48:47.463Z,16.02
2023-05-11T08:51:14.082Z,16.02
2023-05-11T08:53:40.562Z,16.03
2023-05-11T08:56:09.310Z,16.06
2023-05-11T08:58:39.686Z,16.04
2023-05-11T09:01:07.178Z,16.06
2023-05-11T09:03:36.896Z,16.09
2023-05-11T09:06:07.130Z,16.10
2023-05-11T09:08:38.331Z,16.10
2023-05-11T09:11:05.050Z,16.10
2023-05-11T09:13:31.961Z,16.13
2023-05-11T09:15:59.274Z,16.15
2023-05-11T09:18:26.823Z,16.16
2023-05-11T09:20:53.372Z,16.17
2023-05-11T09:23:26.695Z,16.19
2023-05-11T09:25:53.812Z,16.19
2023-05-11T09:28:27.688Z,16.21
2023-05-11T09:31:01.937Z,16.21
2023-05-11T09:33:28.585Z,16.19
2023-05-11T09:35:55.014Z,16.24
2023-05-11T09:38:24.957Z,16.28
2023-05-11T09:40:54.242Z,16.28
2023-05-11T09:43:28.980Z,16.31
2023-05-11T09:45:57.819Z,16.33
2023-05-11T09:48:31.738Z,16.34
2023-05-11T09:51:02.281Z,16.38
2023-05-11T09:53:43.991Z,16.36
2023-05-11T09:56:10.791Z,16.40
2023-05-11T09:58:48.674Z,16.43
2023-05-11T10:01:16.453Z,16.43
2023-05-11T10:03:47.899Z,16.46
2023-05-11T10:06:15.765Z,16.47
2023-05-11T10:08:42.930Z,16.50
2023-05-11T10:11:09.421Z,16.51
2023-05-11T10:13:37.967Z,16.55
2023-05-11T10:16:05.447Z,16.56
2023-05-11T10:18:32.426Z,16.58
2023-05-11T10:20:59.713Z,16.60
2023-05-11T10:23:26.656Z,16.63
2023-05-11T10:25:54.118Z,16.64
2023-05-11T10:28:22.155Z,16.66
2023-05-11T10:30:49.587Z,16.69
2023-05-11T10:33:17.021Z,16.68
2023-05-11T10:35:44.982Z,16.72
2023-05-11T10:38:13.418Z,16.74
2023-05-11T10:40:43.377Z,16.76
2023-05-11T10:43:42.844Z,16.74
2023-05-11T10:46:24.580Z,16.79
2023-05-11T10:49:18.259Z,16.78
2023-05-11T10:52:03.107Z,16.82
2023-05-11T10:54:41.801Z,16.84
2023-05-11T10:57:20.090Z,16.86
2023-05-11T11:00:10.714Z,16.86
2023-05-11T11:02:37.993Z,16.89
2023-05-11T11:05:08.586Z,16.91
2023-05-11T11:07:58.278Z,16.95
2023-05-11T11:10:35.982Z,16.98
2023-05-11T11:13:04.629Z,17.01
2023-05-11T11:16:10.008Z,17.01
2023-05-11T11:18:36.713Z,17.06
2023-05-11T11:21:04.400Z,17.09
2023-05-11T11:23:40.438Z,17.11
2023-05-11T11:26:08.163Z,17.12
2023-05-11T11:28:57.139Z,17.16
2023-05-11T11:31:29.557Z,17.23
2023-05-11T11:34:01.138Z,17.27
2023-05-11T11:36:55.392Z,17.29
2023-05-11T11:39:22.614Z,17.34
2023-05-11T11:42:04.993Z,17.36
2023-05-11T11:44:33.531Z,17.43
2023-05-11T11:47:20.072Z,17.46
2023-05-11T11:49:51.582Z,17.53
2023-05-11T11:52:27.149Z,17.56
2023-05-11T11:54:59.732Z,17.60
2023-05-11T11:57:35.358Z,17.62
2023-05-11T12:00:09.294Z,17.67
2023-05-11T12:02:43.091Z,17.72
2023-05-11T12:05:22.318Z,17.76
2023-05-11T12:07:51.482Z,17.78
2023-05-11T12:10:20.001Z,17.79
2023-05-11T12:12:51.080Z,17.83
2023-05-11T12:15:27.606Z,17.87
2023-05-11T12:17:54.718Z,17.92
2023-05-11T12:20:22.958Z,17.95
2023-05-11T12:22:50.280Z,17.97
2023-05-11T12:25:18.472Z,18.01
2023-05-11T12:28:00.959Z,18.01
2023-05-11T12:30:32.432Z,18.08
2023-05-11T12:33:00.173Z,18.11
2023-05-11T12:35:31.880Z,18.16
2023-05-11T12:38:00.727Z,18.18
2023-05-11T12:40:27.284Z,18.21
2023-05-11T12:42:58.888Z,18.23
2023-05-11T12:45:27.012Z,18.28
2023-05-11T12:47:56.091Z,18.29
2023-05-11T12:50:22.942Z,18.33
2023-05-11T12:52:50.350Z,18.36
2023-05-11T12:55:28.455Z,18.37
2023-05-11T12:58:11.270Z,18.37
2023-05-11T13:00:49.706Z,18.39
2023-05-11T13:03:21.597Z,18.42
2023-05-11T13:05:48.375Z,18.44
2023-05-11T13:08:16.493Z,18.47
2023-05-11T13:10:42.926Z,18.49
2023-05-11T13:13:09.546Z,18.49
2023-05-11T13:15:50.775Z,18.52
2023-05-11T13:18:17.362Z,18.55
2023-05-11T13:20:44.913Z,18.58
2023-05-11T13:23:15.844Z,18.62
2023-05-11T13:25:48.846Z,18.63
2023-05-11T13:28:16.881Z,18.65
2023-05-11T13:30:43.637Z,18.69
2023-05-11T13:33:10.295Z,18.72
2023-05-11T13:35:41.612Z,18.76
2023-05-11T13:38:08.961Z,18.79
2023-05-11T13:40:35.600Z,18.81
2023-05-11T13:43:02.459Z,18.80
2023-05-11T13:45:29.155Z,18.88
2023-05-11T13:47:55.764Z,18.90
2023-05-11T13:50:23.229Z,18.95
2023-05-11T13:52:50.799Z,18.99
2023-05-11T13:55:17.685Z,19.02
2023-05-11T13:57:44.463Z,19.06
2023-05-11T14:00:11.727Z,19.07
2023-05-11T14:02:38.679Z,19.09
2023-05-11T14:05:05.608Z,19.11
2023-05-11T14:07:45.697Z,19.15
2023-05-11T14:10:13.709Z,19.16
2023-05-11T14:12:41.183Z,19.18
2023-05-11T14:15:08.470Z,19.18
2023-05-11T14:17:35.330Z,19.19
2023-05-11T14:20:01.957Z,19.21
2023-05-11T14:22:29.095Z,19.21
2023-05-11T14:24:56.124Z,19.25
2023-05-11T14:27:23.844Z,19.25
2023-05-11T14:29:52.121Z,19.27
2023-05-11T14:32:19.345Z,19.27
2023-05-11T14:34:46.086Z,19.29
2023-05-11T14:37:13.155Z,19.29
2023-05-11T14:39:42.420Z,19.33
2023-05-11T14:42:08.902Z,19.33
2023-05-11T14:44:35.466Z,19.33
2023-05-11T14:47:01.915Z,19.35
2023-05-11T14:49:28.792Z,19.35
2023-05-11T14:51:55.394Z,19.36
2023-05-11T14:54:21.809Z,19.37
2023-05-11T14:56:53.697Z,19.37
2023-05-11T14:59:24.327Z,19.36
2023-05-11T15:01:51.184Z,19.35
2023-05-11T15:04:19.749Z,19.36
2023-05-11T15:06:46.510Z,19.38
2023-05-11T15:09:13.530Z,19.37
2023-05-11T15:11:40.035Z,19.40
2023-05-11T15:14:09.741Z,19.38
2023-05-11T15:16:37.123Z,19.39
2023-05-11T15:19:05.079Z,19.38
2023-05-11T15:21:32.428Z,19.39
2023-05-11T15:23:58.854Z,19.40
2023-05-11T15:26:25.378Z,19.39
2023-05-11T15:28:52.112Z,19.39
2023-05-11T15:31:18.529Z,19.40
2023-05-11T15:33:45.091Z,19.38
2023-05-11T15:36:13.269Z,19.39
2023-05-11T15:38:40.275Z,19.39
2023-05-11T15:41:07.628Z,19.40
2023-05-11T15:43:34.386Z,19.39
2023-05-11T15:46:01.022Z,19.40
2023-05-11T15:48:27.506Z,19.40
2023-05-11T15:50:53.995Z,19.40
2023-05-11T15:53:20.511Z,19.41
2023-05-11T15:55:50.649Z,19.42
2023-05-11T15:58:18.068Z,19.40
2023-05-11T16:00:44.951Z,19.43
2023-05-11T16:03:11.864Z,19.43
2023-05-11T16:05:39.182Z,19.46
2023-05-11T16:08:06.598Z,19.43
2023-05-11T16:10:33.315Z,19.48
2023-05-11T16:12:59.782Z,19.46
2023-05-11T16:15:26.378Z,19.50
2023-05-11T16:17:53.092Z,19.51
2023-05-11T16:20:20.090Z,19.52
2023-05-11T16:22:47.933Z,19.53
2023-05-11T16:25:14.331Z,19.52
2023-05-11T16:27:40.789Z,19.53
2023-05-11T16:30:21.622Z,19.55
2023-05-11T16:32:50.409Z,19.56
2023-05-11T16:35:16.864Z,19.59
2023-05-11T16:37:43.284Z,19.59
2023-05-11T16:42:36.212Z,19.61
2023-05-11T16:45:02.652Z,19.63
2023-05-11T16:47:29.081Z,19.63
2023-05-11T16:49:55.581Z,19.63
2023-05-11T16:52:22.079Z,19.66
2023-05-11T16:54:48.533Z,19.66
2023-05-11T16:57:15.236Z,19.65
2023-05-11T16:59:41.940Z,19.68
2023-05-11T17:02:08.482Z,19.68
2023-05-11T17:04:35.037Z,19.67
2023-05-11T17:07:01.494Z,19.69
2023-05-11T17:09:28.232Z,19.65
2023-05-11T17:11:55.364Z,19.69
2023-05-11T17:14:22.140Z,19.70
2023-05-11T17:16:48.784Z,19.68
2023-05-11T17:19:15.573Z,19.68
2023-05-11T17:21:42.217Z,19.68
2023-05-11T17:24:08.673Z,19.67
2023-05-11T17:26:46.541Z,19.70
2023-05-11T17:29:15.773Z,19.69
2023-05-11T17:31:42.520Z,19.68
2023-05-11T17:34:09.394Z,19.68
2023-05-11T17:36:36.486Z,19.66
2023-05-11T17:39:02.945Z,19.65
2023-05-11T17:41:29.751Z,19.67
2023-05-11T17:43:56.255Z,19.66
2023-05-11T17:46:22.732Z,19.67
2023-05-11T17:48:49.190Z,19.66
2023-05-11T17:51:15.710Z,19.66
2023-05-11T17:53:42.512Z,19.67
2023-05-11T17:56:11.642Z,19.65
2023-05-11T17:58:38.178Z,19.63
2023-05-11T18:01:08.999Z,19.63
2023-05-11T18:03:35.977Z,19.62
2023-05-11T18:06:02.589Z,19.61
2023-05-11T18:08:29.058Z,19.62
2023-05-11T18:10:55.606Z,19.61
2023-05-11T18:13:22.694Z,19.61
2023-05-11T18:15:49.412Z,19.57
2023-05-11T18:18:16.228Z,19.58
2023-05-11T18:20:45.468Z,19.55
2023-05-11T18:23:13.784Z,19.56
2023-05-11T18:25:40.266Z,19.52
2023-05-11T18:28:06.703Z,19.54
2023-05-11T18:30:33.953Z,19.53
2023-05-11T18:33:00.537Z,19.49
2023-05-11T18:35:27.234Z,19.50
2023-05-11T18:37:54.014Z,19.48
2023-05-11T18:40:20.832Z,19.44
2023-05-11T18:42:47.642Z,19.45
2023-05-11T18:45:14.215Z,19.43
2023-05-11T18:47:46.144Z,19.42
2023-05-11T18:50:12.904Z,19.40
2023-05-11T18:52:39.330Z,19.40
2023-05-11T18:55:06.182Z,19.38
2023-05-11T18:57:34.349Z,19.37
2023-05-11T19:00:00.970Z,19.37
2023-05-11T19:02:27.631Z,19.34
2023-05-11T19:04:54.140Z,19.29
2023-05-11T19:07:20.713Z,19.30
2023-05-11T19:09:47.242Z,19.29
2023-05-11T19:12:13.731Z,19.28
2023-05-11T19:14:40.453Z,19.24
2023-05-11T19:17:06.958Z,19.24
2023-05-11T19:19:34.119Z,19.23
2023-05-11T19:22:00.579Z,19.23
2023-05-11T19:24:27.466Z,19.21
2023-05-11T19:27:05.981Z,19.19
2023-05-11T19:29:33.534Z,19.17
2023-05-11T19:32:00.285Z,19.17
2023-05-11T19:34:26.811Z,19.15
2023-05-11T19:36:53.235Z,19.11
2023-05-11T19:39:19.691Z,19.11
2023-05-11T19:41:46.281Z,19.08
2023-05-11T19:44:12.729Z,19.04
2023-05-11T19:46:45.595Z,19.04
2023-05-11T19:49:13.556Z,19.01
2023-05-11T19:51:39.992Z,18.97
2023-05-11T19:54:06.403Z,18.93
2023-05-11T19:56:32.905Z,18.91
2023-05-11T19:58:59.658Z,18.88
2023-05-11T20:01:26.357Z,18.86
2023-05-11T20:03:52.918Z,18.82
2023-05-11T20:06:19.439Z,18.79
2023-05-11T20:08:47.976Z,18.75
2023-05-11T20:11:15.338Z,18.71
2023-05-11T20:13:42.370Z,18.70
2023-05-11T20:16:08.899Z,18.68
2023-05-11T20:18:35.548Z,18.65
2023-05-11T20:21:01.989Z,18.59
2023-05-11T20:23:28.454Z,18.58
2023-05-11T20:25:55.047Z,18.54
2023-05-11T20:28:22.093Z,18.51
2023-05-11T20:30:48.593Z,18.48
2023-05-11T20:35:44.664Z,18.42
2023-05-11T20:38:11.816Z,18.41
2023-05-11T20:40:38.380Z,18.38
2023-05-11T20:43:04.878Z,18.35
2023-05-11T20:45:31.621Z,18.29
2023-05-11T20:47:59.028Z,18.30
2023-05-11T20:50:26.788Z,18.24
2023-05-11T20:52:53.211Z,18.22
2023-05-11T20:55:19.995Z,18.18
2023-05-11T20:57:46.648Z,18.18
2023-05-11T21:00:16.019Z,18.15
2023-05-11T21:02:42.868Z,18.12
2023-05-11T21:05:09.322Z,18.09
2023-05-11T21:07:35.896Z,18.06
2023-05-11T21:10:02.613Z,18.05
2023-05-11T21:12:29.063Z,18.01
2023-05-11T21:14:56.973Z,17.97
2023-05-11T21:17:23.964Z,17.94
2023-05-11T21:19:50.396Z,17.93
2023-05-11T21:22:16.813Z,17.90
2023-05-11T21:24:43.226Z,17.85
2023-05-11T21:27:09.688Z,17.85
2023-05-11T21:29:36.306Z,17.82
2023-05-11T21:32:02.913Z,17.79
2023-05-11T21:34:29.364Z,17.76
2023-05-11T21:36:56.061Z,17.74
2023-05-11T21:39:24.657Z,17.71
2023-05-11T21:41:51.115Z,17.69
2023-05-11T21:44:17.543Z,17.65
2023-05-11T21:46:44.021Z,17.63
2023-05-11T21:49:10.641Z,17.61
2023-05-11T21:51:37.424Z,17.56
2023-05-11T21:54:03.966Z,17.54
2023-05-11T21:56:31.335Z,17.52
2023-05-11T21:58:57.738Z,17.47
2023-05-11T22:01:24.219Z,17.47
2023-05-11T22:03:50.869Z,17.45
2023-05-11T22:06:17.371Z,17.41
2023-05-11T22:08:44.253Z,17.39
2023-05-11T22:11:10.663Z,17.37
2023-05-11T22:13:37.371Z,17.33
2023-05-11T22:16:04.269Z,17.33
2023-05-11T22:18:30.769Z,17.29
2023-05-11T22:20:57.199Z,17.27
2023-05-11T22:23:23.630Z,17.22
2023-05-11T22:25:50.083Z,17.20
2023-05-11T22:28:16.524Z,17.18
2023-05-11T22:30:43.107Z,17.16
2023-05-11T22:33:09.518Z,17.11
2023-05-11T22:35:36.066Z,17.10
2023-05-11T22:38:02.537Z,17.09
2023-05-11T22:40:29.014Z,17.06
2023-05-11T22:42:55.503Z,17.05
2023-05-11T22:45:22.050Z,17.02
2023-05-11T22:47:48.437Z,17.00
2023-05-11T22:50:14.958Z,16.98
2023-05-11T22:52:41.461Z,16.90
2023-05-11T22:55:08.527Z,16.93
2023-05-11T22:57:35.087Z,16.90
2023-05-11T23:00:01.574Z,16.89
2023-05-11T23:02:29.582Z,16.86
2023-05-11T23:04:56.195Z,16.85
2023-05-11T23:07:22.631Z,16.81
2023-05-11T23:09:52.359Z,16.81
2023-05-11T23:12:19.028Z,16.80
2023-05-11T23:14:45.528Z,16.77
2023-05-11T23:17:12.350Z,16.75
2023-05-11T23:19:38.916Z,16.74
2023-05-11T23:22:05.414Z,16.72
2023-05-11T23:24:31.869Z,16.69
2023-05-11T23:26:58.675Z,16.67
2023-05-11T23:29:26.903Z,16.62
2023-05-11T23:31:53.678Z,16.62
2023-05-11T23:34:20.114Z,16.59
2023-05-11T23:36:47.398Z,16.57
2023-05-11T23:39:14.219Z,16.56
2023-05-11T23:41:40.740Z,16.53
2023-05-11T23:44:07.316Z,16.53
2023-05-11T23:46:33.950Z,16.51
2023-05-11T23:49:00.411Z,16.49
2023-05-11T23:51:26.873Z,16.47
2023-05-11T23:53:53.272Z,16.46
2023-05-11T23:56:19.698Z,16.44
2023-05-11T23:58:46.302Z,16.43
